createdAt,value
2022-08-27T00:01:26.579Z,21.88
2022-08-27T00:04:00.324Z,26.55
2022-08-27T00:06:30.069Z,20.45
2022-08-27T00:09:02.840Z,23.88
2022-08-27T00:11:34.262Z,24.02
2022-08-27T00:14:07.801Z,25.50
2022-08-27T00:16:35.581Z,33.92
2022-08-27T00:19:07.475Z,33.15
2022-08-27T00:21:37.150Z,26.30
2022-08-27T00:24:13.305Z,31.90
2022-08-27T00:26:48.129Z,27.70
2022-08-27T00:29:17.939Z,31.08
2022-08-27T00:31:52.982Z,21.67
2022-08-27T00:34:24.938Z,26.92
2022-08-27T00:36:53.260Z,21.15
2022-08-27T00:39:26.749Z,22.70
2022-08-27T00:41:58.777Z,15.77
2022-08-27T00:44:28.897Z,21.80
2022-08-27T00:47:04.301Z,23.10
2022-08-27T00:49:49.391Z,31.83
2022-08-27T00:52:38.133Z,21.75
2022-08-27T00:55:28.629Z,19.10
2022-08-27T00:58:40.397Z,21.33
2022-08-27T01:01:13.937Z,21.98
2022-08-27T01:03:49.650Z,15.77
2022-08-27T01:06:21.491Z,20.50
2022-08-27T01:09:02.654Z,22.33
2022-08-27T01:11:35.321Z,30.30
2022-08-27T01:14:07.928Z,21.30
2022-08-27T01:19:58.791Z,18.95
2022-08-27T01:22:45.391Z,32.90
2022-08-27T01:25:20.964Z,24.25
2022-08-27T01:27:54.867Z,24.10
2022-08-27T01:30:28.858Z,23.98
2022-08-27T01:33:03.508Z,27.52
2022-08-27T01:35:46.382Z,23.85
2022-08-27T01:38:30.226Z,26.27
2022-08-27T01:41:03.976Z,33.88
2022-08-27T01:43:41.566Z,26.52
2022-08-27T01:46:08.804Z,22.75
2022-08-27T01:48:40.388Z,30.05
2022-08-27T01:51:10.020Z,28.65
2022-08-27T01:53:42.196Z,27.83
2022-08-27T01:56:13.348Z,22.15
2022-08-27T01:58:46.103Z,23.55
2022-08-27T02:01:28.271Z,30.55
2022-08-27T02:03:59.673Z,28.52
2022-08-27T02:06:34.510Z,28.75
2022-08-27T02:09:08.292Z,28.10
2022-08-27T02:11:35.746Z,23.35
2022-08-27T02:14:15.742Z,22.52
2022-08-27T02:16:52.112Z,19.77
2022-08-27T02:19:26.018Z,25.48
2022-08-27T02:22:02.336Z,24.73
2022-08-27T02:24:34.206Z,23.23
2022-08-27T02:27:03.850Z,21.20
2022-08-27T02:29:36.584Z,22.67
2022-08-27T02:32:08.280Z,26.83
2022-08-27T02:34:53.274Z,21.08
2022-08-27T02:37:43.978Z,21.50
2022-08-27T02:40:25.255Z,15.02
2022-08-27T02:42:56.777Z,21.73
2022-08-27T02:45:26.749Z,19.30
2022-08-27T02:47:58.188Z,17.23
2022-08-27T02:50:35.383Z,28.25
2022-08-27T02:53:08.590Z,18.25
2022-08-27T02:55:41.242Z,17.20
2022-08-27T02:58:17.695Z,21.52
2022-08-27T03:00:48.188Z,22.40
2022-08-27T03:03:15.919Z,17.05
2022-08-27T03:05:45.321Z,24.27
2022-08-27T03:08:15.061Z,17.98
2022-08-27T03:10:45.400Z,18.25
2022-08-27T03:13:13.774Z,26.23
2022-08-27T03:15:44.325Z,25.15
2022-08-27T03:18:27.098Z,18.23
2022-08-27T03:23:42.285Z,21.45
2022-08-27T03:26:14.753Z,23.33
2022-08-27T03:28:45.401Z,23.38
2022-08-27T03:31:27.216Z,40.22
2022-08-27T03:33:57.949Z,25.65
2022-08-27T03:36:32.630Z,24.42
2022-08-27T03:39:02.358Z,18.88
2022-08-27T03:41:55.032Z,22.33
2022-08-27T03:44:22.729Z,31.63
2022-08-27T03:46:52.068Z,26.65
2022-08-27T03:49:21.514Z,25.98
2022-08-27T03:51:54.077Z,17.88
2022-08-27T03:54:28.244Z,23.88
2022-08-27T03:56:57.978Z,22.08
2022-08-27T03:59:28.839Z,30.35
2022-08-27T04:01:57.908Z,22.13
2022-08-27T04:04:30.766Z,19.60
2022-08-27T04:07:02.080Z,27.87
2022-08-27T04:09:35.094Z,17.58
2022-08-27T04:12:08.042Z,20.67
2022-08-27T04:14:39.753Z,23.98
2022-08-27T04:17:08.982Z,20.63
2022-08-27T04:19:40.286Z,22.98
2022-08-27T04:22:13.065Z,20.13
2022-08-27T04:24:42.008Z,18.47
2022-08-27T04:27:18.780Z,23.05
2022-08-27T04:32:18.496Z,16.92
2022-08-27T04:34:57.199Z,17.75
2022-08-27T04:37:27.852Z,16.60
2022-08-27T04:39:58.746Z,20.23
2022-08-27T04:42:30.537Z,22.70
2022-08-27T04:44:59.347Z,18.67
2022-08-27T04:47:27.917Z,26.73
2022-08-27T04:49:59.505Z,21.10
2022-08-27T04:52:29.440Z,19.23
2022-08-27T04:55:01.033Z,23.30
2022-08-27T04:57:42.032Z,23.50
2022-08-27T05:00:14.330Z,25.42
2022-08-27T05:02:48.793Z,23.33
2022-08-27T05:05:20.594Z,26.80
2022-08-27T05:07:50.494Z,22.67
2022-08-27T05:10:23.873Z,27.05
2022-08-27T05:12:58.077Z,19.42
2022-08-27T05:15:31.367Z,25.65
2022-08-27T05:18:03.616Z,23.60
2022-08-27T05:20:36.080Z,22.42
2022-08-27T05:23:07.846Z,18.88
2022-08-27T05:25:55.989Z,22.02
2022-08-27T05:28:27.762Z,22.50
2022-08-27T05:31:06.177Z,19.25
2022-08-27T05:33:41.261Z,25.08
2022-08-27T05:36:23.129Z,24.20
2022-08-27T05:38:52.897Z,24.40
2022-08-27T05:41:38.991Z,27.08
2022-08-27T05:44:40.080Z,26.10
2022-08-27T05:47:03.372Z,26.25
2022-08-27T05:49:34.071Z,23.25
2022-08-27T05:52:13.692Z,37.90
2022-08-27T05:54:46.776Z,28.63
2022-08-27T05:57:14.776Z,29.55
2022-08-27T06:00:04.260Z,25.25
2022-08-27T06:02:43.465Z,23.42
2022-08-27T06:05:12.140Z,29.02
2022-08-27T06:07:46.009Z,22.42
2022-08-27T06:10:19.514Z,24.10
2022-08-27T06:12:50.322Z,27.05
2022-08-27T06:15:23.227Z,24.27
2022-08-27T06:17:53.474Z,23.40
2022-08-27T06:20:24.548Z,24.73
2022-08-27T06:25:43.710Z,22.42
2022-08-27T06:28:14.337Z,34.33
2022-08-27T06:30:46.113Z,29.65
2022-08-27T06:33:17.767Z,30.10
2022-08-27T06:35:49.411Z,25.40
2022-08-27T06:38:20.757Z,37.83
2022-08-27T06:40:51.464Z,34.70
2022-08-27T06:43:25.105Z,38.13
2022-08-27T06:45:57.293Z,29.27
2022-08-27T06:48:27.499Z,32.63
2022-08-27T06:50:58.833Z,24.63
2022-08-27T06:53:30.652Z,22.90
2022-08-27T06:55:59.963Z,33.17
2022-08-27T06:58:31.269Z,30.45
2022-08-27T07:01:00.929Z,36.38
2022-08-27T07:03:28.423Z,27.52
2022-08-27T07:06:05.867Z,33.13
2022-08-27T07:08:34.083Z,35.83
2022-08-27T07:11:05.996Z,22.02
2022-08-27T07:13:40.323Z,32.00
2022-08-27T07:16:19.879Z,28.92
2022-08-27T07:18:56.822Z,30.00
2022-08-27T07:21:30.908Z,28.73
2022-08-27T07:24:05.347Z,21.63
2022-08-27T07:26:39.439Z,26.63
2022-08-27T07:29:09.733Z,33.38
2022-08-27T07:31:42.476Z,29.27
2022-08-27T07:34:13.369Z,42.45
2022-08-27T07:36:42.794Z,34.88
2022-08-27T07:39:14.677Z,35.30
2022-08-27T07:42:02.701Z,29.33
2022-08-27T07:44:34.286Z,30.92
2022-08-27T07:47:12.010Z,26.08
2022-08-27T07:49:42.908Z,31.83
2022-08-27T07:52:12.125Z,29.42
2022-08-27T07:54:41.561Z,35.05
2022-08-27T07:57:11.620Z,28.55
2022-08-27T07:59:42.949Z,28.75
2022-08-27T08:02:15.265Z,30.50
2022-08-27T08:04:42.679Z,37.10
2022-08-27T08:07:13.620Z,21.50
2022-08-27T08:09:42.037Z,25.13
2022-08-27T08:12:14.047Z,27.98
2022-08-27T08:14:46.567Z,26.45
2022-08-27T08:17:17.339Z,27.73
2022-08-27T08:20:02.451Z,27.67
2022-08-27T08:22:42.431Z,27.33
2022-08-27T08:25:14.777Z,30.05
2022-08-27T08:27:45.141Z,28.35
2022-08-27T08:30:15.010Z,35.45
2022-08-27T08:32:46.937Z,34.28
2022-08-27T08:35:17.644Z,31.50
2022-08-27T08:37:46.993Z,29.75
2022-08-27T08:40:41.592Z,27.15
2022-08-27T08:43:25.217Z,29.95
2022-08-27T08:48:29.903Z,23.40
2022-08-27T08:51:37.465Z,30.67
2022-08-27T08:54:20.322Z,24.33
2022-08-27T08:57:23.426Z,22.45
2022-08-27T09:00:05.382Z,31.52
2022-08-27T09:02:36.926Z,26.60
2022-08-27T09:05:09.569Z,30.75
2022-08-27T09:08:31.952Z,30.02
2022-08-27T09:11:34.110Z,32.33
2022-08-27T09:14:28.028Z,27.80
2022-08-27T09:17:02.497Z,27.40
2022-08-27T09:19:38.729Z,28.77
2022-08-27T09:22:44.628Z,27.73
2022-08-27T09:25:37.926Z,23.20
2022-08-27T09:28:39.571Z,24.38
2022-08-27T09:31:15.140Z,19.75
2022-08-27T09:33:56.497Z,19.55
2022-08-27T09:36:26.164Z,18.67
2022-08-27T09:39:10.439Z,30.45
2022-08-27T09:41:45.696Z,19.48
2022-08-27T09:44:30.541Z,34.45
2022-08-27T09:47:05.103Z,36.50
2022-08-27T09:49:38.906Z,21.85
2022-08-27T09:52:10.547Z,22.83
2022-08-27T09:54:52.262Z,28.70
2022-08-27T09:57:41.176Z,23.40
2022-08-27T10:00:19.354Z,24.42
2022-08-27T10:02:55.556Z,27.85
2022-08-27T10:05:32.843Z,19.75
2022-08-27T10:08:08.558Z,32.13
2022-08-27T10:11:11.593Z,21.70
2022-08-27T10:14:13.980Z,20.30
2022-08-27T10:16:57.943Z,22.92
2022-08-27T10:20:11.314Z,18.05
2022-08-27T10:23:08.353Z,15.50
2022-08-27T10:25:50.700Z,21.42
2022-08-27T10:28:50.100Z,28.10
2022-08-27T10:31:46.331Z,15.38
2022-08-27T10:34:50.512Z,9.77
2022-08-27T10:37:40.228Z,13.70
2022-08-27T10:40:42.033Z,17.20
2022-08-27T10:43:34.330Z,9.63
2022-08-27T10:46:38.777Z,13.25
2022-08-27T10:49:47.015Z,13.35
2022-08-27T10:52:40.569Z,12.57
2022-08-27T10:55:28.885Z,19.35
2022-08-27T10:58:32.336Z,17.27
2022-08-27T11:01:31.479Z,24.63
2022-08-27T11:04:26.461Z,27.10
2022-08-27T11:07:34.124Z,15.98
2022-08-27T11:10:22.883Z,20.02
2022-08-27T11:12:54.295Z,28.48
2022-08-27T11:15:37.160Z,30.98
2022-08-27T11:18:33.864Z,15.27
2022-08-27T11:21:25.273Z,12.93
2022-08-27T11:24:34.953Z,17.98
2022-08-27T11:27:09.594Z,14.98
2022-08-27T11:30:02.469Z,15.00
2022-08-27T11:33:04.502Z,16.13
2022-08-27T11:36:08.319Z,17.02
2022-08-27T11:39:00.644Z,20.00
2022-08-27T11:41:59.984Z,26.10
2022-08-27T11:44:31.005Z,13.82
2022-08-27T11:47:25.035Z,12.88
2022-08-27T11:50:01.930Z,20.98
2022-08-27T11:53:08.528Z,15.60
2022-08-27T11:58:26.680Z,16.85
2022-08-27T12:01:03.880Z,19.42
2022-08-27T12:03:37.199Z,20.60
2022-08-27T12:06:30.117Z,25.63
2022-08-27T12:09:14.912Z,32.50
2022-08-27T12:11:56.658Z,38.58
2022-08-27T12:14:55.772Z,23.05
2022-08-27T12:17:52.414Z,29.88
2022-08-27T12:20:47.441Z,26.58
2022-08-27T12:23:55.939Z,33.85
2022-08-27T12:26:36.793Z,20.80
2022-08-27T12:29:31.926Z,23.58
2022-08-27T12:32:38.905Z,24.13
2022-08-27T12:35:21.856Z,17.70
2022-08-27T12:37:54.055Z,24.23
2022-08-27T12:40:33.254Z,19.48
2022-08-27T12:43:19.829Z,17.00
2022-08-27T12:46:29.834Z,20.58
2022-08-27T12:49:38.788Z,10.50
2022-08-27T12:51:58.850Z,12.38
2022-08-27T12:55:27.294Z,19.33
2022-08-27T13:01:46.643Z,17.42
2022-08-27T13:04:24.490Z,12.38
2022-08-27T13:06:54.919Z,13.63
2022-08-27T13:09:36.797Z,20.33
2022-08-27T13:12:26.554Z,12.50
2022-08-27T13:15:07.412Z,10.63
2022-08-27T13:17:43.660Z,7.47
2022-08-27T13:20:27.517Z,12.15
2022-08-27T13:22:59.930Z,13.48
2022-08-27T13:25:33.736Z,17.40
2022-08-27T13:28:12.977Z,18.08
2022-08-27T13:30:54.730Z,18.23
2022-08-27T13:33:33.718Z,17.85
2022-08-27T13:36:05.917Z,9.23
2022-08-27T13:38:36.518Z,21.88
2022-08-27T13:41:35.680Z,18.58
2022-08-27T13:44:19.950Z,20.33
2022-08-27T13:46:56.019Z,17.98
2022-08-27T13:49:30.033Z,22.15
2022-08-27T13:52:22.450Z,20.85
2022-08-27T13:55:15.126Z,22.58
2022-08-27T13:57:52.695Z,14.10
2022-08-27T14:00:36.005Z,10.82
2022-08-27T14:03:06.495Z,26.45
2022-08-27T14:05:51.732Z,32.50
2022-08-27T14:08:28.120Z,20.75
2022-08-27T14:11:06.897Z,19.50
2022-08-27T14:13:47.106Z,22.05
2022-08-27T14:16:33.431Z,24.55
2022-08-27T14:19:14.209Z,20.55
2022-08-27T14:21:48.103Z,16.02
2022-08-27T14:24:19.625Z,12.23
2022-08-27T14:26:53.710Z,19.48
2022-08-27T14:29:25.031Z,16.90
2022-08-27T14:31:52.635Z,18.88
2022-08-27T14:34:23.352Z,18.70
2022-08-27T14:36:54.613Z,19.40
2022-08-27T14:39:26.669Z,20.90
2022-08-27T14:41:58.954Z,16.80
2022-08-27T14:44:29.710Z,14.48
2022-08-27T14:47:00.967Z,18.70
2022-08-27T14:49:39.697Z,12.68
2022-08-27T14:52:11.913Z,18.00
2022-08-27T14:54:43.265Z,14.35
2022-08-27T14:57:12.346Z,20.08
2022-08-27T14:59:42.667Z,19.20
2022-08-27T15:02:16.444Z,21.73
2022-08-27T15:04:49.209Z,18.55
2022-08-27T15:07:20.632Z,18.67
2022-08-27T15:09:58.206Z,21.70
2022-08-27T15:12:30.794Z,17.65
2022-08-27T15:14:58.822Z,20.15
2022-08-27T15:17:34.089Z,22.20
2022-08-27T15:20:11.804Z,18.90
2022-08-27T15:22:56.418Z,20.08
2022-08-27T15:25:24.728Z,17.38
2022-08-27T15:27:55.419Z,21.13
2022-08-27T15:30:37.404Z,23.13
2022-08-27T15:33:09.644Z,18.50
2022-08-27T15:35:38.492Z,16.20
2022-08-27T15:38:11.362Z,19.70
2022-08-27T15:40:41.044Z,26.77
2022-08-27T15:43:14.161Z,18.77
2022-08-27T15:45:46.289Z,12.00
2022-08-27T15:48:17.737Z,14.88
2022-08-27T15:50:48.962Z,16.60
2022-08-27T15:53:21.833Z,16.40
2022-08-27T15:55:50.456Z,18.38
2022-08-27T15:58:20.147Z,15.82
2022-08-27T16:00:58.612Z,26.30
2022-08-27T16:03:35.479Z,23.23
2022-08-27T16:06:11.279Z,11.52
2022-08-27T16:08:41.897Z,10.77
2022-08-27T16:11:12.841Z,14.07
2022-08-27T16:13:44.747Z,20.48
2022-08-27T16:16:13.620Z,26.27
2022-08-27T16:18:46.590Z,16.40
2022-08-27T16:21:17.007Z,17.42
2022-08-27T16:23:49.074Z,18.02
2022-08-27T16:26:19.788Z,20.88
2022-08-27T16:28:50.336Z,21.38
2022-08-27T16:31:19.029Z,18.50
2022-08-27T16:33:49.024Z,17.30
2022-08-27T16:36:21.193Z,28.50
2022-08-27T16:38:49.524Z,16.02
2022-08-27T16:41:19.316Z,12.40
2022-08-27T16:43:49.362Z,16.95
2022-08-27T16:46:19.337Z,20.33
2022-08-27T16:49:10.334Z,21.23
2022-08-27T16:51:41.022Z,25.95
2022-08-27T16:54:15.270Z,20.40
2022-08-27T16:56:48.309Z,24.10
2022-08-27T16:59:16.824Z,19.63
2022-08-27T17:01:52.376Z,25.38
2022-08-27T17:04:32.291Z,25.83
2022-08-27T17:07:07.937Z,19.83
2022-08-27T17:09:46.693Z,14.25
2022-08-27T17:12:22.437Z,16.73
2022-08-27T17:14:51.713Z,21.92
2022-08-27T17:17:21.568Z,28.05
2022-08-27T17:19:53.436Z,25.27
2022-08-27T17:22:25.929Z,22.95
2022-08-27T17:24:55.788Z,16.57
2022-08-27T17:27:25.175Z,13.23
2022-08-27T17:29:55.542Z,15.98
2022-08-27T17:32:25.132Z,16.48
2022-08-27T17:34:52.363Z,30.50
2022-08-27T17:37:20.958Z,26.25
2022-08-27T17:39:49.269Z,23.35
2022-08-27T17:42:19.779Z,19.88
2022-08-27T17:44:52.966Z,29.00
2022-08-27T17:47:22.883Z,31.08
2022-08-27T17:49:50.532Z,20.17
2022-08-27T17:52:22.059Z,22.95
2022-08-27T17:54:54.652Z,17.85
2022-08-27T17:57:27.129Z,14.85
2022-08-27T18:00:02.737Z,20.98
2022-08-27T18:02:44.736Z,24.30
2022-08-27T18:05:19.502Z,32.05
2022-08-27T18:07:51.208Z,26.30
2022-08-27T18:10:33.361Z,26.13
2022-08-27T18:13:00.928Z,24.00
2022-08-27T18:15:33.978Z,24.65
2022-08-27T18:18:04.182Z,28.10
2022-08-27T18:20:47.714Z,27.08
2022-08-27T18:23:22.559Z,22.65
2022-08-27T18:25:57.790Z,32.40
2022-08-27T18:28:29.212Z,31.52
2022-08-27T18:31:00.466Z,31.95
2022-08-27T18:33:35.650Z,54.05
2022-08-27T18:36:06.139Z,38.05
2022-08-27T18:38:39.475Z,38.08
2022-08-27T18:41:10.470Z,35.83
2022-08-27T18:43:41.887Z,30.05
2022-08-27T18:46:11.091Z,30.25
2022-08-27T18:48:42.379Z,33.30
2022-08-27T18:51:17.184Z,34.13
2022-08-27T18:53:46.661Z,36.95
2022-08-27T18:56:22.117Z,60.20
2022-08-27T18:58:53.401Z,64.10
2022-08-27T19:01:27.221Z,44.70
2022-08-27T19:03:59.546Z,37.60
2022-08-27T19:06:27.718Z,32.20
2022-08-27T19:08:59.492Z,33.35
2022-08-27T19:11:33.763Z,28.45
2022-08-27T19:14:02.172Z,31.52
2022-08-27T19:16:53.670Z,39.53
2022-08-27T19:19:28.016Z,38.97
2022-08-27T19:21:58.622Z,36.35
2022-08-27T19:24:37.555Z,57.35
2022-08-27T19:27:11.957Z,41.83
2022-08-27T19:29:43.330Z,38.40
2022-08-27T19:32:16.373Z,33.47
2022-08-27T19:34:43.544Z,38.28
2022-08-27T19:37:19.550Z,51.13
2022-08-27T19:39:50.535Z,39.70
2022-08-27T19:42:25.327Z,34.97
2022-08-27T19:44:52.960Z,31.33
2022-08-27T19:47:28.741Z,22.98
2022-08-27T19:49:59.723Z,20.98
2022-08-27T19:52:36.688Z,30.48
2022-08-27T19:55:20.410Z,54.65
2022-08-27T19:57:52.849Z,39.47
2022-08-27T20:00:28.318Z,34.85
2022-08-27T20:02:59.435Z,33.03
2022-08-27T20:05:27.312Z,39.10
2022-08-27T20:07:58.457Z,38.38
2022-08-27T20:10:36.576Z,44.25
2022-08-27T20:13:09.635Z,45.38
2022-08-27T20:15:41.041Z,29.17
2022-08-27T20:18:13.005Z,34.58
2022-08-27T20:20:43.548Z,26.30
2022-08-27T20:23:14.621Z,25.35
2022-08-27T20:25:45.492Z,44.88
2022-08-27T20:28:39.001Z,43.30
2022-08-27T20:31:11.091Z,33.10
2022-08-27T20:33:43.961Z,41.70
2022-08-27T20:36:15.903Z,44.22
2022-08-27T20:38:46.621Z,38.40
2022-08-27T20:41:16.339Z,31.08
2022-08-27T20:43:45.401Z,30.45
2022-08-27T20:46:18.301Z,34.85
2022-08-27T20:48:48.242Z,26.83
2022-08-27T20:51:19.064Z,27.05
2022-08-27T20:53:51.286Z,32.50
2022-08-27T20:56:25.521Z,37.00
2022-08-27T20:59:17.433Z,52.40
2022-08-27T21:01:47.626Z,42.40
2022-08-27T21:04:21.502Z,40.40
2022-08-27T21:06:57.944Z,34.03
2022-08-27T21:09:29.958Z,38.47
2022-08-27T21:12:03.452Z,32.00
2022-08-27T21:14:32.210Z,31.88
2022-08-27T21:17:02.540Z,30.95
2022-08-27T21:19:29.996Z,33.38
2022-08-27T21:22:05.619Z,35.20
2022-08-27T21:24:36.885Z,32.20
2022-08-27T21:27:15.690Z,24.35
2022-08-27T21:29:48.451Z,31.52
2022-08-27T21:32:19.937Z,34.38
2022-08-27T21:34:51.102Z,36.08
2022-08-27T21:37:20.150Z,25.63
2022-08-27T21:39:52.581Z,27.45
2022-08-27T21:42:20.496Z,29.33
2022-08-27T21:44:49.701Z,22.58
2022-08-27T21:47:20.770Z,21.30
2022-08-27T21:49:53.102Z,23.67
2022-08-27T21:52:21.404Z,28.92
2022-08-27T21:54:50.405Z,30.40
2022-08-27T21:57:19.965Z,26.92
2022-08-27T21:59:51.448Z,31.20
2022-08-27T22:02:41.025Z,21.75
2022-08-27T22:05:10.846Z,30.08
2022-08-27T22:07:41.514Z,25.65
2022-08-27T22:10:13.717Z,22.50
2022-08-27T22:12:45.577Z,23.05
2022-08-27T22:15:15.562Z,25.70
2022-08-27T22:17:51.361Z,21.50
2022-08-27T22:20:21.297Z,25.25
2022-08-27T22:22:50.518Z,24.42
2022-08-27T22:25:19.870Z,29.85
2022-08-27T22:27:52.680Z,26.25
2022-08-27T22:30:23.641Z,33.83
2022-08-27T22:32:55.756Z,36.38
2022-08-27T22:35:29.037Z,26.13
2022-08-27T22:38:00.910Z,34.10
2022-08-27T22:40:36.647Z,28.00
2022-08-27T22:43:07.856Z,29.42
2022-08-27T22:45:39.122Z,26.70
2022-08-27T22:48:13.252Z,23.75
2022-08-27T22:50:42.686Z,23.95
2022-08-27T22:53:13.992Z,19.33
2022-08-27T22:55:50.234Z,22.17
2022-08-27T22:58:24.406Z,26.10
2022-08-27T23:00:55.968Z,17.73
2022-08-27T23:03:26.882Z,22.20
2022-08-27T23:05:56.639Z,20.88
2022-08-27T23:08:25.540Z,22.40
2022-08-27T23:10:57.054Z,22.15
2022-08-27T23:13:27.894Z,21.90
2022-08-27T23:15:57.731Z,22.40
2022-08-27T23:18:29.147Z,24.65
2022-08-27T23:21:02.056Z,27.67
2022-08-27T23:23:33.454Z,23.00
2022-08-27T23:26:24.628Z,21.20
2022-08-27T23:28:55.471Z,19.65
2022-08-27T23:31:30.427Z,14.40
2022-08-27T23:34:02.455Z,20.50
2022-08-27T23:36:36.197Z,18.97
2022-08-27T23:39:07.909Z,17.65
2022-08-27T23:41:38.404Z,19.30
2022-08-27T23:44:08.898Z,22.65
2022-08-27T23:46:38.606Z,19.77
2022-08-27T23:49:05.792Z,22.27
2022-08-27T23:51:36.682Z,21.88
2022-08-27T23:54:07.673Z,20.65
2022-08-27T23:56:40.244Z,22.33
2022-08-27T23:59:09.460Z,19.40
